sensor_id;sensor_type;location;lat;lon;timestamp;P1;durP1;ratioP1;P2;durP2;ratioP2
8694;SDS011;65580;49.446;6.854;2023-02-12T00:00:17;60.72;;;18.30;;
8694;SDS011;65580;49.446;6.854;2023-02-12T00:04:23;72.95;;;19.75;;
8694;SDS011;65580;49.446;6.854;2023-02-12T00:08:27;66.53;;;19.70;;
8694;SDS011;65580;49.446;6.854;2023-02-12T00:12:30;122.90;;;27.27;;
8694;SDS011;65580;49.446;6.854;2023-02-12T00:16:34;90.53;;;23.55;;
8694;SDS011;65580;49.446;6.854;2023-02-12T00:20:39;65.07;;;18.95;;
8694;SDS011;65580;49.446;6.854;2023-02-12T00:24:43;66.28;;;19.98;;
8694;SDS011;65580;49.446;6.854;2023-02-12T00:28:46;73.35;;;20.00;;
8694;SDS011;65580;49.446;6.854;2023-02-12T00:32:53;68.68;;;19.55;;
8694;SDS011;65580;49.446;6.854;2023-02-12T00:36:58;61.85;;;18.67;;
8694;SDS011;65580;49.446;6.854;2023-02-12T00:41:02;112.97;;;27.35;;
8694;SDS011;65580;49.446;6.854;2023-02-12T00:45:18;71.43;;;21.35;;
8694;SDS011;65580;49.446;6.854;2023-02-12T00:49:23;65.00;;;19.20;;
8694;SDS011;65580;49.446;6.854;2023-02-12T00:53:28;60.95;;;18.92;;
8694;SDS011;65580;49.446;6.854;2023-02-12T00:57:33;67.15;;;19.33;;
8694;SDS011;65580;49.446;6.854;2023-02-12T01:01:37;71.32;;;20.33;;
8694;SDS011;65580;49.446;6.854;2023-02-12T01:05:41;64.63;;;19.30;;
8694;SDS011;65580;49.446;6.854;2023-02-12T01:09:48;105.43;;;26.65;;
8694;SDS011;65580;49.446;6.854;2023-02-12T01:13:54;99.18;;;25.02;;
8694;SDS011;65580;49.446;6.854;2023-02-12T01:17:58;75.63;;;23.67;;
8694;SDS011;65580;49.446;6.854;2023-02-12T01:22:03;132.10;;;30.45;;
8694;SDS011;65580;49.446;6.854;2023-02-12T01:26:12;72.93;;;20.17;;
8694;SDS011;65580;49.446;6.854;2023-02-12T01:30:19;69.13;;;20.75;;
8694;SDS011;65580;49.446;6.854;2023-02-12T01:34:24;78.43;;;20.58;;
8694;SDS011;65580;49.446;6.854;2023-02-12T01:38:33;70.30;;;20.67;;
8694;SDS011;65580;49.446;6.854;2023-02-12T01:42:41;62.92;;;18.90;;
8694;SDS011;65580;49.446;6.854;2023-02-12T01:46:58;82.15;;;23.27;;
8694;SDS011;65580;49.446;6.854;2023-02-12T01:51:06;66.30;;;19.63;;
8694;SDS011;65580;49.446;6.854;2023-02-12T01:55:20;94.10;;;23.85;;
8694;SDS011;65580;49.446;6.854;2023-02-12T01:59:32;110.95;;;26.13;;
8694;SDS011;65580;49.446;6.854;2023-02-12T02:03:38;86.68;;;22.70;;
8694;SDS011;65580;49.446;6.854;2023-02-12T02:07:49;82.93;;;22.98;;
8694;SDS011;65580;49.446;6.854;2023-02-12T02:11:53;102.13;;;25.85;;
8694;SDS011;65580;49.446;6.854;2023-02-12T02:16:18;70.30;;;20.92;;
8694;SDS011;65580;49.446;6.854;2023-02-12T02:20:39;125.15;;;28.40;;
8694;SDS011;65580;49.446;6.854;2023-02-12T02:25:12;72.30;;;20.35;;
8694;SDS011;65580;49.446;6.854;2023-02-12T02:29:38;68.10;;;19.42;;
8694;SDS011;65580;49.446;6.854;2023-02-12T02:33:53;66.25;;;19.42;;
8694;SDS011;65580;49.446;6.854;2023-02-12T02:38:02;68.68;;;20.23;;
8694;SDS011;65580;49.446;6.854;2023-02-12T02:42:15;64.72;;;19.63;;
8694;SDS011;65580;49.446;6.854;2023-02-12T02:46:21;64.85;;;19.88;;
8694;SDS011;65580;49.446;6.854;2023-02-12T02:50:30;119.05;;;26.23;;
8694;SDS011;65580;49.446;6.854;2023-02-12T02:54:46;74.75;;;21.40;;
8694;SDS011;65580;49.446;6.854;2023-02-12T02:58:52;113.38;;;26.20;;
8694;SDS011;65580;49.446;6.854;2023-02-12T03:03:08;103.38;;;24.80;;
8694;SDS011;65580;49.446;6.854;2023-02-12T03:07:20;71.07;;;19.80;;
8694;SDS011;65580;49.446;6.854;2023-02-12T03:11:28;64.07;;;19.55;;
8694;SDS011;65580;49.446;6.854;2023-02-12T03:15:35;63.90;;;19.15;;
8694;SDS011;65580;49.446;6.854;2023-02-12T03:19:44;86.22;;;22.42;;
8694;SDS011;65580;49.446;6.854;2023-02-12T03:23:56;79.28;;;21.10;;
8694;SDS011;65580;49.446;6.854;2023-02-12T03:28:08;59.63;;;18.15;;
8694;SDS011;65580;49.446;6.854;2023-02-12T03:32:16;61.58;;;19.17;;
8694;SDS011;65580;49.446;6.854;2023-02-12T03:36:28;109.38;;;26.27;;
8694;SDS011;65580;49.446;6.854;2023-02-12T03:40:39;78.55;;;21.70;;
8694;SDS011;65580;49.446;6.854;2023-02-12T03:44:45;66.13;;;20.95;;
8694;SDS011;65580;49.446;6.854;2023-02-12T03:48:56;128.63;;;29.10;;
8694;SDS011;65580;49.446;6.854;2023-02-12T03:53:03;64.07;;;19.63;;
8694;SDS011;65580;49.446;6.854;2023-02-12T03:57:24;60.03;;;19.92;;
8694;SDS011;65580;49.446;6.854;2023-02-12T04:01:32;71.15;;;21.05;;
8694;SDS011;65580;49.446;6.854;2023-02-12T04:05:39;66.55;;;20.27;;
8694;SDS011;65580;49.446;6.854;2023-02-12T04:09:47;88.05;;;24.10;;
8694;SDS011;65580;49.446;6.854;2023-02-12T04:13:58;61.65;;;19.33;;
8694;SDS011;65580;49.446;6.854;2023-02-12T04:18:12;67.50;;;20.00;;
8694;SDS011;65580;49.446;6.854;2023-02-12T04:22:21;56.83;;;18.45;;
8694;SDS011;65580;49.446;6.854;2023-02-12T04:26:33;57.40;;;17.95;;
8694;SDS011;65580;49.446;6.854;2023-02-12T04:30:41;96.68;;;24.55;;
8694;SDS011;65580;49.446;6.854;2023-02-12T04:34:49;58.30;;;18.17;;
8694;SDS011;65580;49.446;6.854;2023-02-12T04:38:56;63.83;;;18.63;;
8694;SDS011;65580;49.446;6.854;2023-02-12T04:43:06;55.72;;;18.50;;
8694;SDS011;65580;49.446;6.854;2023-02-12T04:47:15;71.13;;;20.92;;
8694;SDS011;65580;49.446;6.854;2023-02-12T04:51:19;57.95;;;18.73;;
8694;SDS011;65580;49.446;6.854;2023-02-12T04:55:23;90.47;;;25.25;;
8694;SDS011;65580;49.446;6.854;2023-02-12T04:59:30;59.25;;;18.33;;
8694;SDS011;65580;49.446;6.854;2023-02-12T05:03:36;60.83;;;19.17;;
8694;SDS011;65580;49.446;6.854;2023-02-12T05:07:43;61.92;;;19.42;;
8694;SDS011;65580;49.446;6.854;2023-02-12T05:11:50;52.15;;;17.70;;
8694;SDS011;65580;49.446;6.854;2023-02-12T05:16:02;65.00;;;17.85;;
8694;SDS011;65580;49.446;6.854;2023-02-12T05:20:20;51.80;;;18.20;;
8694;SDS011;65580;49.446;6.854;2023-02-12T05:24:27;55.78;;;17.88;;
8694;SDS011;65580;49.446;6.854;2023-02-12T05:28:31;74.00;;;21.25;;
8694;SDS011;65580;49.446;6.854;2023-02-12T05:36:47;56.78;;;18.58;;
8694;SDS011;65580;49.446;6.854;2023-02-12T05:40:57;52.42;;;18.08;;
8694;SDS011;65580;49.446;6.854;2023-02-12T05:45:04;53.28;;;17.90;;
8694;SDS011;65580;49.446;6.854;2023-02-12T05:49:08;89.25;;;24.20;;
8694;SDS011;65580;49.446;6.854;2023-02-12T05:53:14;57.90;;;17.50;;
8694;SDS011;65580;49.446;6.854;2023-02-12T05:57:18;58.33;;;18.38;;
8694;SDS011;65580;49.446;6.854;2023-02-12T06:01:24;63.30;;;19.05;;
8694;SDS011;65580;49.446;6.854;2023-02-12T06:05:29;77.00;;;22.15;;
8694;SDS011;65580;49.446;6.854;2023-02-12T06:09:37;71.10;;;21.73;;
8694;SDS011;65580;49.446;6.854;2023-02-12T06:13:41;56.15;;;18.45;;
8694;SDS011;65580;49.446;6.854;2023-02-12T06:17:45;53.13;;;17.55;;
8694;SDS011;65580;49.446;6.854;2023-02-12T06:21:51;79.60;;;23.50;;
8694;SDS011;65580;49.446;6.854;2023-02-12T06:25:57;89.13;;;26.30;;
8694;SDS011;65580;49.446;6.854;2023-02-12T06:30:04;61.75;;;20.85;;
8694;SDS011;65580;49.446;6.854;2023-02-12T06:34:09;54.72;;;18.58;;
8694;SDS011;65580;49.446;6.854;2023-02-12T06:38:17;56.83;;;18.67;;
8694;SDS011;65580;49.446;6.854;2023-02-12T06:46:26;57.17;;;18.60;;
8694;SDS011;65580;49.446;6.854;2023-02-12T06:54:34;55.67;;;19.75;;
8694;SDS011;65580;49.446;6.854;2023-02-12T06:58:41;55.88;;;18.92;;
8694;SDS011;65580;49.446;6.854;2023-02-12T07:02:53;53.58;;;19.20;;
8694;SDS011;65580;49.446;6.854;2023-02-12T07:06:57;54.83;;;18.50;;
8694;SDS011;65580;49.446;6.854;2023-02-12T07:11:01;79.13;;;25.98;;
8694;SDS011;65580;49.446;6.854;2023-02-12T07:15:07;55.00;;;19.48;;
8694;SDS011;65580;49.446;6.854;2023-02-12T07:19:12;52.45;;;18.85;;
8694;SDS011;65580;49.446;6.854;2023-02-12T07:23:18;81.40;;;25.17;;
8694;SDS011;65580;49.446;6.854;2023-02-12T07:27:25;52.75;;;18.85;;
8694;SDS011;65580;49.446;6.854;2023-02-12T07:31:33;74.90;;;22.88;;
8694;SDS011;65580;49.446;6.854;2023-02-12T07:35:36;79.57;;;26.25;;
8694;SDS011;65580;49.446;6.854;2023-02-12T07:43:46;57.92;;;21.88;;
8694;SDS011;65580;49.446;6.854;2023-02-12T07:47:51;66.60;;;24.55;;
8694;SDS011;65580;49.446;6.854;2023-02-12T07:51:55;63.63;;;23.73;;
8694;SDS011;65580;49.446;6.854;2023-02-12T07:56:06;68.60;;;24.25;;
8694;SDS011;65580;49.446;6.854;2023-02-12T08:00:17;70.63;;;24.80;;
8694;SDS011;65580;49.446;6.854;2023-02-12T08:04:23;58.78;;;20.70;;
8694;SDS011;65580;49.446;6.854;2023-02-12T08:08:27;58.65;;;21.05;;
8694;SDS011;65580;49.446;6.854;2023-02-12T08:12:31;64.50;;;21.58;;
8694;SDS011;65580;49.446;6.854;2023-02-12T08:16:35;63.75;;;20.60;;
8694;SDS011;65580;49.446;6.854;2023-02-12T08:20:47;50.72;;;17.98;;
8694;SDS011;65580;49.446;6.854;2023-02-12T08:24:51;58.35;;;18.60;;
8694;SDS011;65580;49.446;6.854;2023-02-12T08:33:00;47.53;;;18.00;;
8694;SDS011;65580;49.446;6.854;2023-02-12T08:37:07;46.13;;;17.42;;
8694;SDS011;65580;49.446;6.854;2023-02-12T08:41:15;49.40;;;17.33;;
8694;SDS011;65580;49.446;6.854;2023-02-12T08:45:22;51.95;;;17.23;;
8694;SDS011;65580;49.446;6.854;2023-02-12T08:49:28;47.42;;;16.35;;
8694;SDS011;65580;49.446;6.854;2023-02-12T08:53:34;51.75;;;18.13;;
8694;SDS011;65580;49.446;6.854;2023-02-12T08:57:38;50.13;;;16.80;;
8694;SDS011;65580;49.446;6.854;2023-02-12T09:01:44;50.83;;;16.48;;
8694;SDS011;65580;49.446;6.854;2023-02-12T09:05:51;48.65;;;17.17;;
8694;SDS011;65580;49.446;6.854;2023-02-12T09:10:05;50.40;;;16.05;;
8694;SDS011;65580;49.446;6.854;2023-02-12T09:14:11;47.53;;;16.27;;
8694;SDS011;65580;49.446;6.854;2023-02-12T09:18:30;44.33;;;15.63;;
8694;SDS011;65580;49.446;6.854;2023-02-12T09:22:37;40.33;;;14.32;;
8694;SDS011;65580;49.446;6.854;2023-02-12T09:26:43;45.05;;;16.05;;
8694;SDS011;65580;49.446;6.854;2023-02-12T09:30:46;41.03;;;14.27;;
8694;SDS011;65580;49.446;6.854;2023-02-12T09:39:06;40.95;;;13.73;;
8694;SDS011;65580;49.446;6.854;2023-02-12T09:43:17;40.72;;;15.20;;
8694;SDS011;65580;49.446;6.854;2023-02-12T09:47:28;39.05;;;14.13;;
8694;SDS011;65580;49.446;6.854;2023-02-12T09:55:44;41.83;;;13.45;;
8694;SDS011;65580;49.446;6.854;2023-02-12T09:59:51;34.47;;;13.43;;
8694;SDS011;65580;49.446;6.854;2023-02-12T10:03:58;34.50;;;12.63;;
8694;SDS011;65580;49.446;6.854;2023-02-12T10:08:20;39.80;;;13.45;;
8694;SDS011;65580;49.446;6.854;2023-02-12T10:12:35;34.03;;;13.00;;
8694;SDS011;65580;49.446;6.854;2023-02-12T10:16:46;29.75;;;10.75;;
8694;SDS011;65580;49.446;6.854;2023-02-12T10:20:57;25.30;;;9.15;;
8694;SDS011;65580;49.446;6.854;2023-02-12T10:25:13;24.52;;;9.93;;
8694;SDS011;65580;49.446;6.854;2023-02-12T10:29:24;26.83;;;10.52;;
8694;SDS011;65580;49.446;6.854;2023-02-12T10:33:43;27.25;;;10.50;;
8694;SDS011;65580;49.446;6.854;2023-02-12T10:37:51;28.52;;;10.52;;
8694;SDS011;65580;49.446;6.854;2023-02-12T10:42:04;28.27;;;10.52;;
8694;SDS011;65580;49.446;6.854;2023-02-12T10:46:21;25.73;;;9.02;;
8694;SDS011;65580;49.446;6.854;2023-02-12T10:50:32;26.77;;;12.93;;
8694;SDS011;65580;49.446;6.854;2023-02-12T10:54:55;22.58;;;8.90;;
8694;SDS011;65580;49.446;6.854;2023-02-12T10:59:01;27.65;;;10.70;;
8694;SDS011;65580;49.446;6.854;2023-02-12T11:03:18;21.45;;;9.32;;
8694;SDS011;65580;49.446;6.854;2023-02-12T11:07:45;20.90;;;8.35;;
8694;SDS011;65580;49.446;6.854;2023-02-12T11:11:50;22.27;;;9.65;;
8694;SDS011;65580;49.446;6.854;2023-02-12T11:15:56;20.85;;;9.38;;
8694;SDS011;65580;49.446;6.854;2023-02-12T11:20:18;20.70;;;9.30;;
8694;SDS011;65580;49.446;6.854;2023-02-12T11:24:29;20.08;;;8.93;;
8694;SDS011;65580;49.446;6.854;2023-02-12T11:28:40;26.13;;;11.40;;
8694;SDS011;65580;49.446;6.854;2023-02-12T11:33:06;26.33;;;10.43;;
8694;SDS011;65580;49.446;6.854;2023-02-12T11:37:20;22.23;;;10.23;;
8694;SDS011;65580;49.446;6.854;2023-02-12T11:41:29;22.70;;;9.82;;
8694;SDS011;65580;49.446;6.854;2023-02-12T11:45:42;23.10;;;10.18;;
8694;SDS011;65580;49.446;6.854;2023-02-12T11:49:54;22.50;;;8.95;;
8694;SDS011;65580;49.446;6.854;2023-02-12T11:54:01;19.23;;;8.15;;
8694;SDS011;65580;49.446;6.854;2023-02-12T11:58:15;21.63;;;9.00;;
8694;SDS011;65580;49.446;6.854;2023-02-12T12:02:21;19.88;;;9.20;;
8694;SDS011;65580;49.446;6.854;2023-02-12T12:06:30;21.42;;;8.15;;
8694;SDS011;65580;49.446;6.854;2023-02-12T12:10:40;20.77;;;9.07;;
8694;SDS011;65580;49.446;6.854;2023-02-12T12:14:49;19.10;;;8.75;;
8694;SDS011;65580;49.446;6.854;2023-02-12T12:19:25;16.00;;;7.53;;
8694;SDS011;65580;49.446;6.854;2023-02-12T12:23:53;17.70;;;8.20;;
8694;SDS011;65580;49.446;6.854;2023-02-12T12:28:03;19.00;;;8.73;;
8694;SDS011;65580;49.446;6.854;2023-02-12T12:32:14;19.55;;;10.35;;
8694;SDS011;65580;49.446;6.854;2023-02-12T12:41:08;16.35;;;7.43;;
8694;SDS011;65580;49.446;6.854;2023-02-12T12:45:26;17.60;;;8.07;;
8694;SDS011;65580;49.446;6.854;2023-02-12T12:49:50;18.65;;;8.68;;
8694;SDS011;65580;49.446;6.854;2023-02-12T12:54:08;20.15;;;8.63;;
8694;SDS011;65580;49.446;6.854;2023-02-12T12:58:26;20.00;;;8.15;;
8694;SDS011;65580;49.446;6.854;2023-02-12T13:02:44;19.85;;;8.98;;
8694;SDS011;65580;49.446;6.854;2023-02-12T13:11:28;19.40;;;8.70;;
8694;SDS011;65580;49.446;6.854;2023-02-12T13:15:40;19.83;;;8.93;;
8694;SDS011;65580;49.446;6.854;2023-02-12T13:19:52;17.85;;;8.68;;
8694;SDS011;65580;49.446;6.854;2023-02-12T13:24:06;14.63;;;7.35;;
8694;SDS011;65580;49.446;6.854;2023-02-12T13:28:25;16.77;;;7.53;;
8694;SDS011;65580;49.446;6.854;2023-02-12T13:32:54;16.10;;;7.57;;
8694;SDS011;65580;49.446;6.854;2023-02-12T13:37:05;16.70;;;8.57;;
8694;SDS011;65580;49.446;6.854;2023-02-12T13:41:19;15.20;;;7.30;;
8694;SDS011;65580;49.446;6.854;2023-02-12T13:45:26;18.42;;;8.60;;
8694;SDS011;65580;49.446;6.854;2023-02-12T13:49:43;21.23;;;8.98;;
8694;SDS011;65580;49.446;6.854;2023-02-12T13:53:55;17.08;;;8.23;;
8694;SDS011;65580;49.446;6.854;2023-02-12T14:02:47;18.63;;;8.30;;
8694;SDS011;65580;49.446;6.854;2023-02-12T14:06:59;18.67;;;10.27;;
8694;SDS011;65580;49.446;6.854;2023-02-12T14:11:08;17.00;;;7.60;;
8694;SDS011;65580;49.446;6.854;2023-02-12T14:15:19;14.75;;;6.75;;
8694;SDS011;65580;49.446;6.854;2023-02-12T14:19:54;15.30;;;6.88;;
8694;SDS011;65580;49.446;6.854;2023-02-12T14:28:55;15.95;;;7.93;;
8694;SDS011;65580;49.446;6.854;2023-02-12T14:33:17;16.55;;;7.57;;
8694;SDS011;65580;49.446;6.854;2023-02-12T14:37:36;18.35;;;7.72;;
8694;SDS011;65580;49.446;6.854;2023-02-12T14:41:44;17.15;;;7.35;;
8694;SDS011;65580;49.446;6.854;2023-02-12T14:50:40;18.73;;;9.15;;
8694;SDS011;65580;49.446;6.854;2023-02-12T14:54:53;15.07;;;6.75;;
8694;SDS011;65580;49.446;6.854;2023-02-12T14:58:58;15.02;;;6.82;;
8694;SDS011;65580;49.446;6.854;2023-02-12T15:03:15;16.90;;;7.53;;
8694;SDS011;65580;49.446;6.854;2023-02-12T15:07:26;14.05;;;6.82;;
8694;SDS011;65580;49.446;6.854;2023-02-12T15:11:40;14.25;;;6.55;;
8694;SDS011;65580;49.446;6.854;2023-02-12T15:15:49;17.67;;;6.85;;
8694;SDS011;65580;49.446;6.854;2023-02-12T15:19:55;17.92;;;7.07;;
8694;SDS011;65580;49.446;6.854;2023-02-12T15:24:04;15.57;;;6.93;;
8694;SDS011;65580;49.446;6.854;2023-02-12T15:28:13;16.23;;;7.13;;
8694;SDS011;65580;49.446;6.854;2023-02-12T15:32:22;12.40;;;6.38;;
8694;SDS011;65580;49.446;6.854;2023-02-12T15:36:28;14.57;;;6.93;;
8694;SDS011;65580;49.446;6.854;2023-02-12T15:40:34;16.67;;;7.15;;
8694;SDS011;65580;49.446;6.854;2023-02-12T15:44:39;14.07;;;6.72;;
8694;SDS011;65580;49.446;6.854;2023-02-12T15:48:43;15.80;;;6.53;;
8694;SDS011;65580;49.446;6.854;2023-02-12T15:52:51;13.60;;;6.65;;
8694;SDS011;65580;49.446;6.854;2023-02-12T15:56:58;14.88;;;6.30;;
8694;SDS011;65580;49.446;6.854;2023-02-12T16:01:12;15.85;;;6.60;;
8694;SDS011;65580;49.446;6.854;2023-02-12T16:05:21;15.10;;;6.47;;
8694;SDS011;65580;49.446;6.854;2023-02-12T16:09:27;15.73;;;6.55;;
8694;SDS011;65580;49.446;6.854;2023-02-12T16:13:33;19.73;;;6.82;;
8694;SDS011;65580;49.446;6.854;2023-02-12T16:17:44;14.05;;;6.50;;
8694;SDS011;65580;49.446;6.854;2023-02-12T16:21:49;14.88;;;5.38;;
8694;SDS011;65580;49.446;6.854;2023-02-12T16:25:58;15.50;;;6.28;;
8694;SDS011;65580;49.446;6.854;2023-02-12T16:30:03;14.68;;;6.75;;
8694;SDS011;65580;49.446;6.854;2023-02-12T16:38:43;14.32;;;6.47;;
8694;SDS011;65580;49.446;6.854;2023-02-12T16:42:57;17.02;;;7.32;;
8694;SDS011;65580;49.446;6.854;2023-02-12T16:47:11;17.05;;;6.97;;
8694;SDS011;65580;49.446;6.854;2023-02-12T16:51:29;13.95;;;6.05;;
8694;SDS011;65580;49.446;6.854;2023-02-12T16:55:34;16.35;;;6.80;;
8694;SDS011;65580;49.446;6.854;2023-02-12T16:59:39;13.05;;;5.53;;
8694;SDS011;65580;49.446;6.854;2023-02-12T17:03:48;17.73;;;7.20;;
8694;SDS011;65580;49.446;6.854;2023-02-12T17:08:08;17.02;;;7.00;;
8694;SDS011;65580;49.446;6.854;2023-02-12T17:12:15;11.63;;;5.38;;
8694;SDS011;65580;49.446;6.854;2023-02-12T17:16:19;14.60;;;5.43;;
8694;SDS011;65580;49.446;6.854;2023-02-12T17:20:33;14.38;;;5.60;;
8694;SDS011;65580;49.446;6.854;2023-02-12T17:24:47;11.85;;;5.25;;
8694;SDS011;65580;49.446;6.854;2023-02-12T17:28:56;11.73;;;5.25;;
8694;SDS011;65580;49.446;6.854;2023-02-12T17:33:06;16.42;;;7.22;;
8694;SDS011;65580;49.446;6.854;2023-02-12T17:37:23;17.25;;;6.90;;
8694;SDS011;65580;49.446;6.854;2023-02-12T17:41:36;15.98;;;6.35;;
8694;SDS011;65580;49.446;6.854;2023-02-12T17:46:01;16.20;;;6.75;;
8694;SDS011;65580;49.446;6.854;2023-02-12T17:50:11;15.02;;;6.38;;
8694;SDS011;65580;49.446;6.854;2023-02-12T17:54:17;14.88;;;6.07;;
8694;SDS011;65580;49.446;6.854;2023-02-12T17:58:59;13.15;;;5.55;;
8694;SDS011;65580;49.446;6.854;2023-02-12T18:03:04;12.70;;;5.70;;
8694;SDS011;65580;49.446;6.854;2023-02-12T18:07:17;15.82;;;6.55;;
8694;SDS011;65580;49.446;6.854;2023-02-12T18:11:25;23.58;;;8.05;;
8694;SDS011;65580;49.446;6.854;2023-02-12T18:15:41;18.88;;;8.40;;
8694;SDS011;65580;49.446;6.854;2023-02-12T18:19:48;22.58;;;8.95;;
8694;SDS011;65580;49.446;6.854;2023-02-12T18:23:56;18.70;;;8.13;;
8694;SDS011;65580;49.446;6.854;2023-02-12T18:32:09;19.15;;;8.07;;
8694;SDS011;65580;49.446;6.854;2023-02-12T18:36:22;45.50;;;17.17;;
8694;SDS011;65580;49.446;6.854;2023-02-12T18:40:32;21.17;;;9.40;;
8694;SDS011;65580;49.446;6.854;2023-02-12T18:44:47;20.25;;;9.20;;
8694;SDS011;65580;49.446;6.854;2023-02-12T18:48:55;20.25;;;7.82;;
8694;SDS011;65580;49.446;6.854;2023-02-12T18:53:02;40.63;;;14.20;;
8694;SDS011;65580;49.446;6.854;2023-02-12T18:57:07;20.63;;;9.00;;
8694;SDS011;65580;49.446;6.854;2023-02-12T19:01:14;23.75;;;10.35;;
8694;SDS011;65580;49.446;6.854;2023-02-12T19:05:20;27.08;;;10.88;;
8694;SDS011;65580;49.446;6.854;2023-02-12T19:09:51;26.80;;;10.05;;
8694;SDS011;65580;49.446;6.854;2023-02-12T19:14:10;28.95;;;11.02;;
8694;SDS011;65580;49.446;6.854;2023-02-12T19:18:20;36.97;;;13.23;;
8694;SDS011;65580;49.446;6.854;2023-02-12T19:22:32;30.33;;;11.10;;
8694;SDS011;65580;49.446;6.854;2023-02-12T19:26:37;26.17;;;10.02;;
8694;SDS011;65580;49.446;6.854;2023-02-12T19:30:45;21.83;;;8.85;;
8694;SDS011;65580;49.446;6.854;2023-02-12T19:34:49;21.55;;;8.07;;
8694;SDS011;65580;49.446;6.854;2023-02-12T19:38:54;16.60;;;7.15;;
8694;SDS011;65580;49.446;6.854;2023-02-12T19:42:59;18.17;;;7.45;;
8694;SDS011;65580;49.446;6.854;2023-02-12T19:47:03;21.35;;;7.93;;
8694;SDS011;65580;49.446;6.854;2023-02-12T19:51:10;33.80;;;9.55;;
8694;SDS011;65580;49.446;6.854;2023-02-12T19:55:22;20.48;;;7.78;;
8694;SDS011;65580;49.446;6.854;2023-02-12T19:59:26;25.98;;;9.60;;
8694;SDS011;65580;49.446;6.854;2023-02-12T20:03:44;21.33;;;8.80;;
8694;SDS011;65580;49.446;6.854;2023-02-12T20:07:53;25.85;;;9.50;;
8694;SDS011;65580;49.446;6.854;2023-02-12T20:12:01;18.15;;;8.23;;
8694;SDS011;65580;49.446;6.854;2023-02-12T20:16:17;37.70;;;12.88;;
8694;SDS011;65580;49.446;6.854;2023-02-12T20:20:23;25.33;;;9.18;;
8694;SDS011;65580;49.446;6.854;2023-02-12T20:24:30;26.17;;;9.63;;
8694;SDS011;65580;49.446;6.854;2023-02-12T20:28:43;28.05;;;10.30;;
8694;SDS011;65580;49.446;6.854;2023-02-12T20:33:07;30.42;;;10.60;;
8694;SDS011;65580;49.446;6.854;2023-02-12T20:37:14;43.85;;;13.57;;
8694;SDS011;65580;49.446;6.854;2023-02-12T20:41:27;22.40;;;9.77;;
8694;SDS011;65580;49.446;6.854;2023-02-12T20:46:06;27.42;;;10.10;;
8694;SDS011;65580;49.446;6.854;2023-02-12T20:50:34;26.00;;;10.30;;
8694;SDS011;65580;49.446;6.854;2023-02-12T20:54:48;39.63;;;12.95;;
8694;SDS011;65580;49.446;6.854;2023-02-12T20:59:05;89.43;;;24.20;;
8694;SDS011;65580;49.446;6.854;2023-02-12T21:03:19;34.10;;;11.23;;
8694;SDS011;65580;49.446;6.854;2023-02-12T21:07:32;36.20;;;13.30;;
8694;SDS011;65580;49.446;6.854;2023-02-12T21:11:35;88.28;;;21.60;;
8694;SDS011;65580;49.446;6.854;2023-02-12T21:16:08;77.05;;;20.15;;
8694;SDS011;65580;49.446;6.854;2023-02-12T21:20:27;31.65;;;12.82;;
8694;SDS011;65580;49.446;6.854;2023-02-12T21:24:42;104.45;;;28.92;;
8694;SDS011;65580;49.446;6.854;2023-02-12T21:28:54;39.30;;;14.80;;
8694;SDS011;65580;49.446;6.854;2023-02-12T21:33:05;66.05;;;18.77;;
8694;SDS011;65580;49.446;6.854;2023-02-12T21:37:11;46.85;;;16.45;;
8694;SDS011;65580;49.446;6.854;2023-02-12T21:41:21;93.88;;;26.05;;
8694;SDS011;65580;49.446;6.854;2023-02-12T21:45:29;84.35;;;24.02;;
8694;SDS011;65580;49.446;6.854;2023-02-12T21:49:41;43.03;;;16.02;;
8694;SDS011;65580;49.446;6.854;2023-02-12T21:53:51;54.35;;;19.33;;
8694;SDS011;65580;49.446;6.854;2023-02-12T21:58:05;137.38;;;33.40;;
8694;SDS011;65580;49.446;6.854;2023-02-12T22:02:38;50.08;;;18.50;;
8694;SDS011;65580;49.446;6.854;2023-02-12T22:06:55;58.10;;;19.40;;
8694;SDS011;65580;49.446;6.854;2023-02-12T22:11:21;198.68;;;38.92;;
8694;SDS011;65580;49.446;6.854;2023-02-12T22:15:27;55.45;;;18.08;;
8694;SDS011;65580;49.446;6.854;2023-02-12T22:19:53;46.72;;;15.55;;
8694;SDS011;65580;49.446;6.854;2023-02-12T22:24:25;49.60;;;15.77;;
8694;SDS011;65580;49.446;6.854;2023-02-12T22:28:59;87.95;;;19.20;;
8694;SDS011;65580;49.446;6.854;2023-02-12T22:33:18;45.35;;;15.57;;
8694;SDS011;65580;49.446;6.854;2023-02-12T22:37:26;42.45;;;15.00;;
8694;SDS011;65580;49.446;6.854;2023-02-12T22:41:52;140.65;;;28.63;;
8694;SDS011;65580;49.446;6.854;2023-02-12T22:46:16;46.55;;;16.45;;
8694;SDS011;65580;49.446;6.854;2023-02-12T22:50:28;90.97;;;22.30;;
8694;SDS011;65580;49.446;6.854;2023-02-12T22:54:37;41.58;;;14.30;;
8694;SDS011;65580;49.446;6.854;2023-02-12T22:58:45;46.88;;;14.57;;
8694;SDS011;65580;49.446;6.854;2023-02-12T23:02:53;46.28;;;15.10;;
8694;SDS011;65580;49.446;6.854;2023-02-12T23:07:00;51.97;;;15.60;;
8694;SDS011;65580;49.446;6.854;2023-02-12T23:11:07;39.78;;;13.35;;
8694;SDS011;65580;49.446;6.854;2023-02-12T23:15:12;50.00;;;16.95;;
8694;SDS011;65580;49.446;6.854;2023-02-12T23:19:17;44.67;;;14.98;;
8694;SDS011;65580;49.446;6.854;2023-02-12T23:23:25;50.35;;;17.52;;
8694;SDS011;65580;49.446;6.854;2023-02-12T23:27:29;51.08;;;15.88;;
8694;SDS011;65580;49.446;6.854;2023-02-12T23:31:38;42.45;;;14.73;;
8694;SDS011;65580;49.446;6.854;2023-02-12T23:35:44;99.97;;;21.48;;
8694;SDS011;65580;49.446;6.854;2023-02-12T23:39:52;41.45;;;14.15;;
8694;SDS011;65580;49.446;6.854;2023-02-12T23:43:57;47.53;;;14.82;;
8694;SDS011;65580;49.446;6.854;2023-02-12T23:48:04;49.22;;;14.25;;
8694;SDS011;65580;49.446;6.854;2023-02-12T23:52:14;43.63;;;14.70;;
8694;SDS011;65580;49.446;6.854;2023-02-12T23:56:23;58.40;;;17.10;;
